Time;durP1;ratioP1;P1;durP2;ratioP2;P2;SDS_P1;SDS_P2;PMS_P1;PMS_P2;Temp;Humidity;BMP_temperature;BMP_pressure;BME280_temperature;BME280_humidity;BME280_pressure;Samples;Min_cycle;Max_cycle;Signal;HPM_P1;HPM_P2
2022/01/09 00:01:24;;;;;;;10.00;3.00;;;3.30;99.90;;;;;;4965135;28;20035;-74
2022/01/09 00:03:50;;;;;;;5.50;2.72;;;3.40;99.90;;;;;;4967532;28;20118;-74
2022/01/09 00:06:16;;;;;;;6.43;3.17;;;3.40;99.90;;;;;;4972139;28;20396;-74
2022/01/09 00:08:44;;;;;;;4.72;2.97;;;3.40;99.90;;;;;;4972267;28;20098;-75
2022/01/09 00:11:14;;;;;;;5.32;3.13;;;3.50;99.90;;;;;;4972099;28;20101;-74
2022/01/09 00:13:40;;;;;;;6.22;2.75;;;3.50;99.90;;;;;;4974462;28;20050;-73
2022/01/09 00:16:06;;;;;;;6.60;3.33;;;3.50;99.90;;;;;;4973411;28;20062;-74
2022/01/09 00:18:32;;;;;;;5.55;2.85;;;3.50;99.90;;;;;;4969614;28;20031;-73
2022/01/09 00:20:58;;;;;;;8.18;3.33;;;3.50;99.90;;;;;;4968686;28;20038;-74
2022/01/09 00:23:24;;;;;;;5.28;2.70;;;3.50;99.90;;;;;;4975299;28;20023;-74
2022/01/09 00:25:50;;;;;;;4.72;2.92;;;3.50;99.90;;;;;;4972643;28;20511;-74
2022/01/09 00:28:15;;;;;;;9.43;2.72;;;3.50;99.90;;;;;;4971774;28;20038;-75
2022/01/09 00:30:41;;;;;;;6.90;3.20;;;3.50;99.90;;;;;;4964253;28;20032;-74
2022/01/09 00:33:07;;;;;;;7.50;3.22;;;3.50;99.90;;;;;;4973112;28;20604;-74
2022/01/09 00:35:36;;;;;;;4.43;2.83;;;3.50;99.90;;;;;;4970126;28;20098;-74
2022/01/09 00:38:01;;;;;;;6.38;3.13;;;3.50;99.90;;;;;;4971395;28;20485;-74
2022/01/09 00:40:28;;;;;;;6.93;3.22;;;3.50;99.90;;;;;;4973571;28;20102;-74
2022/01/09 00:42:53;;;;;;;5.47;3.22;;;3.50;99.90;;;;;;4973947;28;20109;-74
2022/01/09 00:45:19;;;;;;;4.28;2.50;;;3.50;99.90;;;;;;4973057;28;20063;-74
2022/01/09 00:47:45;;;;;;;7.03;2.70;;;3.50;99.90;;;;;;4975037;28;20034;-74
2022/01/09 00:50:12;;;;;;;6.60;3.28;;;3.50;99.90;;;;;;4974108;28;20488;-74
2022/01/09 00:52:38;;;;;;;4.05;2.42;;;3.50;99.90;;;;;;4963590;28;20390;-74
2022/01/09 00:55:05;;;;;;;4.72;3.22;;;3.50;99.90;;;;;;4979951;28;20026;-73
2022/01/09 00:57:32;;;;;;;5.00;2.55;;;3.50;99.90;;;;;;4974052;28;20062;-74
2022/01/09 00:59:58;;;;;;;4.38;2.40;;;3.50;99.90;;;;;;4975205;28;20050;-74
2022/01/09 01:02:24;;;;;;;6.00;3.28;;;3.50;99.90;;;;;;4971518;28;20039;-74
2022/01/09 01:04:51;;;;;;;4.85;2.58;;;3.50;99.90;;;;;;4974753;28;20034;-74
2022/01/09 01:07:19;;;;;;;5.97;2.35;;;3.60;99.90;;;;;;4974848;28;20353;-72
2022/01/09 01:09:45;;;;;;;5.35;2.63;;;3.60;99.90;;;;;;4975404;28;20436;-75
2022/01/09 01:12:11;;;;;;;5.78;2.50;;;3.50;99.90;;;;;;4974880;28;20106;-73
2022/01/09 01:14:37;;;;;;;3.38;2.00;;;3.50;99.90;;;;;;4974364;28;20419;-74
2022/01/09 01:17:03;;;;;;;4.05;2.40;;;3.50;99.90;;;;;;4956855;28;20050;-72
2022/01/09 01:19:29;;;;;;;6.25;2.72;;;3.50;99.90;;;;;;4972581;28;20073;-73
2022/01/09 01:21:56;;;;;;;5.95;2.40;;;3.50;99.90;;;;;;4973247;28;20054;-74
2022/01/09 01:24:22;;;;;;;4.88;2.58;;;3.60;99.90;;;;;;4974638;28;20053;-73
2022/01/09 01:26:48;;;;;;;4.65;2.28;;;3.60;99.90;;;;;;4973733;28;20036;-73
2022/01/09 01:29:14;;;;;;;4.95;2.15;;;3.60;99.90;;;;;;4976503;28;20642;-72
2022/01/09 01:31:40;;;;;;;3.92;2.60;;;3.60;99.90;;;;;;4973011;28;20022;-73
2022/01/09 01:34:05;;;;;;;4.63;2.63;;;3.60;99.90;;;;;;4972700;28;20046;-73
2022/01/09 01:36:31;;;;;;;7.32;3.00;;;3.60;99.90;;;;;;4975888;28;20031;-73
2022/01/09 01:38:57;;;;;;;5.43;2.72;;;3.60;99.90;;;;;;4974633;28;20038;-73
2022/01/09 01:41:23;;;;;;;5.43;2.60;;;3.60;99.90;;;;;;4973812;28;20440;-72
2022/01/09 01:43:48;;;;;;;3.88;2.58;;;3.50;99.90;;;;;;4966775;28;20027;-73
2022/01/09 01:46:14;;;;;;;4.03;2.53;;;3.60;99.90;;;;;;4972814;28;20107;-74
2022/01/09 01:48:40;;;;;;;6.93;3.10;;;3.60;99.90;;;;;;4971627;28;20078;-72
2022/01/09 01:51:06;;;;;;;5.85;3.40;;;3.50;99.90;;;;;;4972670;28;20102;-73
2022/01/09 01:53:32;;;;;;;5.47;2.88;;;3.50;99.90;;;;;;4972450;28;20102;-72
2022/01/09 01:56:00;;;;;;;6.47;2.65;;;3.50;99.90;;;;;;4974550;28;20388;-72
2022/01/09 01:58:26;;;;;;;6.70;3.20;;;3.50;99.90;;;;;;4974045;28;20042;-73
2022/01/09 02:00:53;;;;;;;5.05;3.03;;;3.50;99.90;;;;;;4974237;28;20031;-73
2022/01/09 02:03:19;;;;;;;4.47;2.45;;;3.50;99.90;;;;;;4973974;28;20033;-72
2022/01/09 02:05:45;;;;;;;5.20;2.63;;;3.50;99.90;;;;;;4974112;28;20030;-72
2022/01/09 02:08:12;;;;;;;4.40;2.40;;;3.50;99.90;;;;;;4973517;28;20117;-73
2022/01/09 02:10:42;;;;;;;5.30;2.42;;;3.50;99.90;;;;;;4974265;28;20377;-73
2022/01/09 02:13:08;;;;;;;5.43;2.67;;;3.50;99.90;;;;;;4957619;28;20042;-73
2022/01/09 02:15:39;;;;;;;6.40;2.60;;;3.50;99.90;;;;;;4972741;28;20027;-73
2022/01/09 02:18:07;;;;;;;6.30;2.92;;;3.50;99.90;;;;;;4973595;28;20035;-73
2022/01/09 02:20:33;;;;;;;4.85;3.08;;;3.50;99.90;;;;;;4974402;28;20038;-73
2022/01/09 02:22:59;;;;;;;7.13;2.75;;;3.40;99.90;;;;;;4973403;28;20038;-73
2022/01/09 02:25:26;;;;;;;7.05;2.70;;;3.40;99.90;;;;;;4972568;28;20027;-73
2022/01/09 02:27:52;;;;;;;9.35;3.33;;;3.30;99.90;;;;;;4977933;28;20102;-73
2022/01/09 02:30:18;;;;;;;7.28;3.00;;;3.30;99.90;;;;;;4971341;28;20034;-73
2022/01/09 02:32:44;;;;;;;6.20;3.08;;;3.30;99.90;;;;;;4972298;28;20022;-72
2022/01/09 02:35:10;;;;;;;8.98;3.70;;;3.30;99.90;;;;;;4972537;28;20019;-74
2022/01/09 02:37:36;;;;;;;10.15;3.28;;;3.20;99.90;;;;;;4973934;28;20113;-73
2022/01/09 02:40:02;;;;;;;9.60;3.28;;;3.20;99.90;;;;;;4974181;28;20038;-73
2022/01/09 02:42:30;;;;;;;6.90;3.30;;;3.20;99.90;;;;;;4970398;28;20034;-73
2022/01/09 02:44:56;;;;;;;8.43;4.07;;;3.20;99.90;;;;;;4981608;28;20060;-73
2022/01/09 02:47:22;;;;;;;6.30;2.70;;;3.20;99.90;;;;;;4977392;28;20030;-73
2022/01/09 02:49:51;;;;;;;6.82;3.20;;;3.10;99.90;;;;;;4973704;28;20026;-73
2022/01/09 02:52:49;;;;;;;9.88;3.45;;;3.10;99.90;;;;;;4970816;28;20501;-72
2022/01/09 02:55:14;;;;;;;6.30;3.10;;;3.10;99.90;;;;;;4970970;28;20150;-73
2022/01/09 02:57:46;;;;;;;10.23;3.78;;;3.00;99.90;;;;;;4972543;28;20039;-73
2022/01/09 03:00:14;;;;;;;9.43;3.03;;;3.00;99.90;;;;;;4968917;28;20035;-73
2022/01/09 03:02:40;;;;;;;7.40;3.60;;;3.00;99.90;;;;;;4965706;28;20035;-73
2022/01/09 03:05:07;;;;;;;4.80;3.17;;;2.90;99.90;;;;;;4976799;28;20370;-73
2022/01/09 03:07:33;;;;;;;7.25;3.67;;;3.00;99.90;;;;;;4973470;28;20065;-73
2022/01/09 03:10:00;;;;;;;6.38;3.55;;;2.90;99.90;;;;;;4972281;28;20027;-73
2022/01/09 03:12:26;;;;;;;7.78;3.40;;;2.90;99.90;;;;;;4972072;28;20054;-73
2022/01/09 03:14:51;;;;;;;7.30;3.83;;;3.00;99.90;;;;;;4971750;28;20533;-73
2022/01/09 03:17:17;;;;;;;7.00;3.28;;;3.00;99.90;;;;;;4971809;28;20043;-73
2022/01/09 03:19:43;;;;;;;7.72;3.55;;;3.00;99.90;;;;;;4972105;28;20105;-73
2022/01/09 03:22:09;;;;;;;5.90;3.47;;;3.00;99.90;;;;;;4972935;28;20489;-73
2022/01/09 03:24:34;;;;;;;5.05;3.00;;;3.00;99.90;;;;;;4972432;28;20053;-73
2022/01/09 03:27:01;;;;;;;6.90;3.30;;;3.00;99.90;;;;;;4970182;28;20374;-73
2022/01/09 03:29:28;;;;;;;6.22;3.38;;;3.00;99.90;;;;;;4972624;28;20023;-73
2022/01/09 03:31:54;;;;;;;8.20;3.88;;;3.00;99.90;;;;;;4971962;28;20563;-73
2022/01/09 03:34:20;;;;;;;4.50;3.03;;;2.90;99.90;;;;;;4971963;28;20027;-73
2022/01/09 03:36:45;;;;;;;6.85;3.72;;;3.00;99.90;;;;;;4971929;28;20074;-74
2022/01/09 03:39:11;;;;;;;5.00;3.10;;;3.00;99.90;;;;;;4970534;28;20489;-74
2022/01/09 03:41:37;;;;;;;7.80;3.72;;;3.00;99.90;;;;;;4970412;28;20481;-73
2022/01/09 03:44:03;;;;;;;6.78;3.65;;;3.00;99.90;;;;;;4973024;28;20116;-73
2022/01/09 03:46:29;;;;;;;6.20;3.30;;;3.00;99.90;;;;;;4971617;28;20034;-73
2022/01/09 03:48:54;;;;;;;6.18;3.47;;;3.00;99.90;;;;;;4972466;28;20493;-73
2022/01/09 03:51:24;;;;;;;8.10;3.80;;;3.10;99.90;;;;;;4969635;28;20061;-73
2022/01/09 03:53:50;;;;;;;8.27;3.70;;;3.00;99.90;;;;;;4972711;28;20026;-73
2022/01/09 03:56:15;;;;;;;5.72;3.45;;;3.00;99.90;;;;;;4972479;28;20384;-73
2022/01/09 03:58:41;;;;;;;5.55;3.53;;;3.00;99.90;;;;;;4970424;28;20145;-72
2022/01/09 04:01:08;;;;;;;7.70;3.78;;;3.10;99.90;;;;;;4972107;28;20027;-73
2022/01/09 04:03:34;;;;;;;7.72;3.50;;;3.00;99.90;;;;;;4971992;28;20019;-73
2022/01/09 04:06:01;;;;;;;8.07;4.00;;;3.00;99.90;;;;;;4971297;28;20058;-73
2022/01/09 04:08:27;;;;;;;5.57;3.25;;;2.90;99.90;;;;;;4970566;28;20489;-73
2022/01/09 04:10:53;;;;;;;9.00;4.00;;;2.90;99.90;;;;;;4972296;28;20035;-74
2022/01/09 04:13:19;;;;;;;6.47;3.75;;;2.90;99.90;;;;;;4969694;28;20125;-73
2022/01/09 04:15:49;;;;;;;9.10;4.30;;;2.90;99.90;;;;;;4972422;28;20540;-73
2022/01/09 04:18:23;;;;;;;7.22;3.30;;;3.00;99.90;;;;;;4972697;28;20022;-73
2022/01/09 04:20:50;;;;;;;10.23;3.53;;;3.00;99.90;;;;;;4976024;28;20019;-74
2022/01/09 04:23:17;;;;;;;7.10;3.53;;;3.00;99.90;;;;;;4975734;28;20023;-73
2022/01/09 04:25:44;;;;;;;6.22;3.65;;;3.00;99.90;;;;;;4975569;28;20054;-73
2022/01/09 04:28:11;;;;;;;7.03;3.60;;;3.00;99.90;;;;;;4974467;28;20050;-73
2022/01/09 04:30:37;;;;;;;5.85;3.80;;;3.00;99.90;;;;;;4975818;28;20029;-73
2022/01/09 04:33:03;;;;;;;6.97;3.63;;;3.00;99.90;;;;;;4975086;28;20500;-74
2022/01/09 04:35:29;;;;;;;6.35;3.60;;;3.00;99.90;;;;;;4974151;28;20101;-73
2022/01/09 04:37:55;;;;;;;7.03;4.15;;;3.00;99.90;;;;;;4975290;28;20034;-73
2022/01/09 04:40:21;;;;;;;6.05;3.58;;;3.00;99.90;;;;;;4976147;28;20097;-73
2022/01/09 04:42:57;;;;;;;6.90;3.22;;;3.10;99.90;;;;;;4974833;28;20073;-73
2022/01/09 04:45:25;;;;;;;6.88;3.80;;;3.10;99.90;;;;;;4975891;28;20035;-73
2022/01/09 04:47:51;;;;;;;6.80;3.92;;;3.00;99.90;;;;;;4975450;28;20114;-73
2022/01/09 04:50:25;;;;;;;7.97;3.55;;;3.00;99.90;;;;;;4971747;28;20034;-74
2022/01/09 04:52:54;;;;;;;6.15;3.75;;;3.00;99.90;;;;;;4973763;28;20034;-73
2022/01/09 04:55:20;;;;;;;5.97;3.30;;;3.00;99.90;;;;;;4970360;28;20448;-73
2022/01/09 04:57:46;;;;;;;8.30;3.53;;;3.00;99.90;;;;;;4973533;28;20393;-73
2022/01/09 05:00:12;;;;;;;7.28;3.60;;;3.00;99.90;;;;;;4974547;28;20480;-73
2022/01/09 05:02:38;;;;;;;6.13;3.50;;;3.00;99.90;;;;;;4975483;28;20043;-73
2022/01/09 05:05:05;;;;;;;6.28;3.97;;;3.00;99.90;;;;;;4975347;28;20042;-73
2022/01/09 05:07:34;;;;;;;9.15;3.80;;;3.00;99.90;;;;;;4974760;28;20035;-73
2022/01/09 05:09:59;;;;;;;8.57;4.00;;;2.90;99.90;;;;;;4971474;28;20105;-73
2022/01/09 05:12:25;;;;;;;7.03;3.78;;;3.00;99.90;;;;;;4973946;28;20102;-73
2022/01/09 05:14:51;;;;;;;8.88;4.20;;;2.90;99.90;;;;;;4973762;28;20034;-72
2022/01/09 05:17:17;;;;;;;8.57;4.40;;;2.90;99.90;;;;;;4974099;28;20034;-74
2022/01/09 05:19:43;;;;;;;9.65;4.53;;;2.90;99.90;;;;;;4974793;28;20031;-74
2022/01/09 05:22:09;;;;;;;7.32;4.35;;;2.80;99.90;;;;;;4974389;28;20441;-73
2022/01/09 05:24:35;;;;;;;8.07;4.07;;;2.80;99.90;;;;;;4973508;28;20027;-73
2022/01/09 05:27:01;;;;;;;9.35;4.10;;;2.80;99.90;;;;;;4974687;28;20101;-77
2022/01/09 05:29:30;;;;;;;9.00;3.95;;;2.80;99.90;;;;;;4974343;28;20046;-73
2022/01/09 05:31:55;;;;;;;8.52;4.45;;;2.70;99.90;;;;;;4973355;28;20035;-73
2022/01/09 05:34:21;;;;;;;7.78;4.75;;;2.70;99.90;;;;;;4974283;28;20481;-73
2022/01/09 05:36:47;;;;;;;11.68;5.10;;;2.70;99.90;;;;;;4973252;28;20465;-73
2022/01/09 05:39:13;;;;;;;8.05;4.85;;;2.70;99.90;;;;;;4973263;28;20106;-74
2022/01/09 05:41:41;;;;;;;9.20;4.95;;;2.70;99.90;;;;;;4969484;28;20540;-73
2022/01/09 05:44:06;;;;;;;10.07;5.20;;;2.70;99.90;;;;;;4973416;28;20497;-74
2022/01/09 05:46:32;;;;;;;9.30;4.70;;;2.60;99.90;;;;;;4973933;28;20066;-73
2022/01/09 05:48:58;;;;;;;9.10;4.95;;;2.60;99.90;;;;;;4973870;28;20548;-73
2022/01/09 05:51:23;;;;;;;10.35;5.60;;;2.60;99.90;;;;;;4975791;28;20046;-73
2022/01/09 05:53:49;;;;;;;8.55;5.53;;;2.60;99.90;;;;;;4973941;28;20094;-73
2022/01/09 05:56:15;;;;;;;10.50;5.40;;;2.60;99.90;;;;;;4973969;28;20019;-73
2022/01/09 05:58:40;;;;;;;10.40;5.55;;;2.50;99.90;;;;;;4972742;28;20062;-73
2022/01/09 06:01:07;;;;;;;11.50;6.60;;;2.60;99.90;;;;;;4971013;28;20053;-73
2022/01/09 06:03:33;;;;;;;9.50;6.70;;;2.50;99.90;;;;;;4973341;28;20026;-73
2022/01/09 06:05:59;;;;;;;9.85;6.35;;;2.50;99.90;;;;;;4971748;28;20026;-73
2022/01/09 06:08:25;;;;;;;11.98;6.78;;;2.50;99.90;;;;;;4972629;28;20034;-74
2022/01/09 06:10:51;;;;;;;13.52;7.38;;;2.50;99.90;;;;;;4974639;28;20023;-73
2022/01/09 06:13:16;;;;;;;12.40;7.38;;;2.40;99.90;;;;;;4973811;28;20117;-74
2022/01/09 06:15:42;;;;;;;12.57;7.40;;;2.40;99.90;;;;;;4972055;28;20597;-73
2022/01/09 06:18:08;;;;;;;11.32;7.05;;;2.40;99.90;;;;;;4973207;28;20477;-73
2022/01/09 06:20:34;;;;;;;12.00;7.43;;;2.40;99.90;;;;;;4972184;28;20031;-73
2022/01/09 06:22:59;;;;;;;14.30;7.55;;;2.40;99.90;;;;;;4975667;28;20038;-73
2022/01/09 06:25:25;;;;;;;11.82;6.63;;;2.40;99.90;;;;;;4972166;28;20026;-73
2022/01/09 06:27:51;;;;;;;12.27;7.63;;;2.40;99.90;;;;;;4973845;28;20544;-74
2022/01/09 06:30:17;;;;;;;14.52;8.07;;;2.40;99.90;;;;;;4972754;28;20030;-73
2022/01/09 06:32:43;;;;;;;12.85;6.88;;;2.40;99.90;;;;;;4972828;28;20575;-73
2022/01/09 06:35:10;;;;;;;14.35;7.93;;;2.40;99.90;;;;;;4971900;28;20085;-73
2022/01/09 06:37:36;;;;;;;11.60;7.43;;;2.40;99.90;;;;;;4972489;28;20511;-73
2022/01/09 06:40:04;;;;;;;10.85;7.00;;;2.40;99.90;;;;;;4970691;28;20114;-73
2022/01/09 06:42:29;;;;;;;15.13;7.65;;;2.30;99.90;;;;;;4972618;28;20035;-73
2022/01/09 06:44:55;;;;;;;10.43;7.43;;;2.30;99.90;;;;;;4973203;28;20038;-72
2022/01/09 06:47:20;;;;;;;14.13;7.28;;;2.30;99.90;;;;;;4971053;28;20018;-72
2022/01/09 06:49:47;;;;;;;14.20;7.80;;;2.30;99.90;;;;;;4972754;28;20055;-72
2022/01/09 06:52:13;;;;;;;14.70;8.07;;;2.30;99.90;;;;;;4971312;28;20081;-73
2022/01/09 06:54:38;;;;;;;14.65;7.65;;;2.30;99.90;;;;;;4972346;28;20492;-73
2022/01/09 06:57:04;;;;;;;11.80;6.85;;;2.30;99.90;;;;;;4971906;28;20038;-72
2022/01/09 06:59:30;;;;;;;11.05;6.95;;;2.30;99.90;;;;;;4971755;28;20034;-72
2022/01/09 07:01:56;;;;;;;12.27;6.93;;;2.30;99.90;;;;;;4971823;28;20031;-72
2022/01/09 07:04:21;;;;;;;12.82;7.53;;;2.30;99.90;;;;;;4970657;28;20038;-72
2022/01/09 07:06:47;;;;;;;10.90;7.60;;;2.30;99.90;;;;;;4975869;28;20030;-72
2022/01/09 07:09:13;;;;;;;11.25;7.32;;;2.30;99.90;;;;;;4986632;28;20027;-72
2022/01/09 07:11:38;;;;;;;15.30;7.97;;;2.30;99.90;;;;;;4971555;28;20027;-72
2022/01/09 07:14:04;;;;;;;10.23;6.95;;;2.20;99.90;;;;;;4967501;28;20046;-72
2022/01/09 07:16:30;;;;;;;11.15;7.60;;;2.30;99.90;;;;;;4971407;28;20397;-72
2022/01/09 07:18:56;;;;;;;11.48;7.65;;;2.20;99.90;;;;;;4969579;28;20031;-72
2022/01/09 07:21:21;;;;;;;12.27;8.05;;;2.30;99.90;;;;;;4967025;28;20023;-73
2022/01/09 07:23:47;;;;;;;13.35;7.88;;;2.30;99.90;;;;;;4969732;28;20035;-72
2022/01/09 07:26:13;;;;;;;13.23;8.60;;;2.20;99.90;;;;;;4965305;28;20031;-72
2022/01/09 07:28:38;;;;;;;13.32;7.55;;;2.30;99.90;;;;;;4969517;28;20030;-72
2022/01/09 07:31:04;;;;;;;11.88;7.57;;;2.30;99.90;;;;;;4963464;28;21066;-73
2022/01/09 07:33:30;;;;;;;15.60;8.32;;;2.20;99.90;;;;;;4966223;28;20384;-73
2022/01/09 07:35:56;;;;;;;12.38;8.10;;;2.20;99.90;;;;;;4968496;28;20611;-73
2022/01/09 07:38:22;;;;;;;14.77;8.45;;;2.20;99.90;;;;;;4966646;28;20034;-73
2022/01/09 07:40:48;;;;;;;13.38;8.40;;;2.30;99.90;;;;;;4968070;28;20041;-73
2022/01/09 07:43:13;;;;;;;13.90;9.18;;;2.30;99.90;;;;;;4966969;28;20030;-73
2022/01/09 07:45:39;;;;;;;15.90;8.95;;;2.30;99.90;;;;;;4967234;28;20441;-73
2022/01/09 07:48:06;;;;;;;12.43;8.27;;;2.30;99.90;;;;;;4967862;28;20038;-73
2022/01/09 07:50:32;;;;;;;13.40;8.30;;;2.20;99.90;;;;;;4968668;28;20047;-73
2022/01/09 07:52:58;;;;;;;17.88;8.68;;;2.30;99.90;;;;;;4968727;28;20437;-73
2022/01/09 07:55:24;;;;;;;15.38;8.50;;;2.30;99.90;;;;;;4964462;28;20107;-73
2022/01/09 07:57:50;;;;;;;17.00;8.63;;;2.20;99.90;;;;;;4969313;28;20085;-73
2022/01/09 08:00:17;;;;;;;13.85;7.90;;;2.20;99.90;;;;;;4969174;28;20026;-73
2022/01/09 08:02:44;;;;;;;13.15;8.50;;;2.20;99.90;;;;;;4965552;28;20038;-73
2022/01/09 08:05:11;;;;;;;13.73;8.27;;;2.20;99.90;;;;;;4970496;28;20082;-73
2022/01/09 08:07:37;;;;;;;12.18;8.27;;;2.20;99.90;;;;;;4972178;28;20037;-73
2022/01/09 08:10:03;;;;;;;15.18;9.68;;;2.20;99.90;;;;;;4968715;28;20033;-73
2022/01/09 08:12:29;;;;;;;11.85;8.20;;;2.30;99.90;;;;;;4964616;28;20030;-73
2022/01/09 08:14:55;;;;;;;13.85;8.85;;;2.30;99.90;;;;;;4968098;28;20084;-72
2022/01/09 08:17:20;;;;;;;11.80;8.13;;;2.30;99.90;;;;;;4969001;28;20388;-73
2022/01/09 08:19:46;;;;;;;12.63;8.38;;;2.20;99.90;;;;;;4967852;28;20035;-73
2022/01/09 08:22:11;;;;;;;15.07;8.82;;;2.20;99.90;;;;;;4966710;28;20175;-72
2022/01/09 08:24:39;;;;;;;13.40;8.23;;;2.30;99.90;;;;;;4966046;28;20455;-73
2022/01/09 08:27:06;;;;;;;15.32;8.98;;;2.20;99.90;;;;;;4968165;28;20110;-74
2022/01/09 08:29:31;;;;;;;13.52;8.38;;;2.20;99.90;;;;;;4969041;28;20941;-72
2022/01/09 08:31:57;;;;;;;12.45;7.90;;;2.20;99.90;;;;;;4964595;28;20018;-72
2022/01/09 08:34:23;;;;;;;11.73;8.10;;;2.20;99.90;;;;;;4967244;28;20022;-73
2022/01/09 08:36:49;;;;;;;14.73;8.88;;;2.20;99.90;;;;;;4966365;28;20049;-73
2022/01/09 08:39:15;;;;;;;13.43;8.20;;;2.30;99.90;;;;;;4967110;28;20038;-74
2022/01/09 08:41:40;;;;;;;13.23;8.90;;;2.30;99.90;;;;;;4967421;28;20035;-72
2022/01/09 08:44:07;;;;;;;14.80;8.93;;;2.30;99.90;;;;;;4966129;28;20027;-73
2022/01/09 08:46:34;;;;;;;12.85;8.20;;;2.40;99.90;;;;;;4971689;28;20103;-75
2022/01/09 08:49:01;;;;;;;15.40;8.63;;;2.40;99.90;;;;;;4968705;28;20022;-74
2022/01/09 08:51:28;;;;;;;13.32;9.02;;;2.40;99.90;;;;;;4971255;28;20023;-72
2022/01/09 08:53:58;;;;;;;13.90;9.35;;;2.40;99.90;;;;;;4971455;28;20099;-75
2022/01/09 08:56:27;;;;;;;13.43;8.93;;;2.40;99.90;;;;;;4971849;28;20027;-73
2022/01/09 08:58:53;;;;;;;15.07;9.00;;;2.40;99.90;;;;;;4970767;28;20400;-73
2022/01/09 09:01:19;;;;;;;12.20;8.10;;;2.40;99.90;;;;;;4966560;28;20023;-72
2022/01/09 09:03:45;;;;;;;12.25;8.13;;;2.40;99.90;;;;;;4972991;28;20054;-73
2022/01/09 09:06:13;;;;;;;14.23;8.30;;;2.50;99.90;;;;;;4973388;28;20059;-72
2022/01/09 09:08:39;;;;;;;12.38;8.18;;;2.50;99.90;;;;;;4970616;28;20037;-72
2022/01/09 09:11:09;;;;;;;14.07;8.38;;;2.60;99.90;;;;;;4974308;28;20030;-72
2022/01/09 09:13:36;;;;;;;12.30;8.47;;;2.60;99.90;;;;;;4973484;28;20046;-73
2022/01/09 09:16:03;;;;;;;11.98;8.02;;;2.60;99.90;;;;;;4974802;28;20962;-72
2022/01/09 09:18:29;;;;;;;13.20;8.40;;;2.60;99.90;;;;;;4970335;28;20034;-72
2022/01/09 09:20:56;;;;;;;15.88;9.50;;;2.60;99.90;;;;;;4972455;28;20031;-73
2022/01/09 09:23:22;;;;;;;14.93;9.52;;;2.60;99.90;;;;;;4975526;28;20465;-73
2022/01/09 09:25:48;;;;;;;15.55;8.35;;;2.70;99.90;;;;;;4974907;28;20085;-73
2022/01/09 09:28:14;;;;;;;12.27;7.70;;;2.70;99.90;;;;;;4973066;28;20034;-73
2022/01/09 09:30:41;;;;;;;14.10;7.63;;;2.70;99.90;;;;;;4970558;28;20027;-76
2022/01/09 09:33:07;;;;;;;13.05;8.48;;;2.70;99.90;;;;;;4971452;28;20465;-74
2022/01/09 09:35:34;;;;;;;15.32;8.57;;;2.70;99.90;;;;;;4968735;28;20122;-73
2022/01/09 09:38:00;;;;;;;13.07;8.43;;;2.70;99.90;;;;;;4971929;28;20066;-73
2022/01/09 09:40:26;;;;;;;12.55;7.47;;;2.80;99.90;;;;;;4974572;28;20033;-72
2022/01/09 09:42:53;;;;;;;13.05;8.45;;;2.80;99.90;;;;;;4973354;28;20101;-72
2022/01/09 09:45:19;;;;;;;14.75;8.35;;;2.80;99.90;;;;;;4972512;28;20500;-71
2022/01/09 09:47:45;;;;;;;13.82;8.18;;;2.80;99.90;;;;;;4974006;28;20370;-72
2022/01/09 09:50:14;;;;;;;13.82;8.68;;;2.80;99.90;;;;;;4971811;28;20023;-72
2022/01/09 09:52:43;;;;;;;13.68;8.30;;;2.90;99.90;;;;;;4972829;28;20027;-72
2022/01/09 09:55:10;;;;;;;13.32;7.93;;;2.90;99.90;;;;;;4971885;28;20038;-72
2022/01/09 09:57:35;;;;;;;15.85;8.63;;;2.90;99.90;;;;;;4971047;28;20030;-72
2022/01/09 10:00:10;;;;;;;12.93;9.15;;;2.90;99.90;;;;;;4971927;28;20230;-72
2022/01/09 10:02:47;;;;;;;13.93;8.07;;;2.90;99.90;;;;;;4971347;28;20030;-72
2022/01/09 10:05:18;;;;;;;12.57;8.15;;;2.90;99.90;;;;;;4971890;28;20041;-72
2022/01/09 10:07:44;;;;;;;12.75;8.23;;;2.90;99.90;;;;;;4973199;28;20035;-73
2022/01/09 10:10:16;;;;;;;11.25;7.28;;;3.00;99.90;;;;;;4971463;28;20026;-74
2022/01/09 10:12:43;;;;;;;14.25;7.90;;;3.00;99.90;;;;;;4974898;28;20027;-74
2022/01/09 10:15:12;;;;;;;14.15;8.20;;;3.00;99.90;;;;;;4971828;28;20034;-73
2022/01/09 10:17:42;;;;;;;11.75;7.75;;;3.10;99.90;;;;;;4973032;28;20558;-74
2022/01/09 10:20:16;;;;;;;12.32;7.20;;;3.10;99.90;;;;;;4972217;28;20112;-74
2022/01/09 10:22:53;;;;;;;12.27;7.38;;;3.10;99.90;;;;;;4971728;28;20031;-73
2022/01/09 10:25:36;;;;;;;9.75;6.40;;;3.10;99.90;;;;;;4970866;28;20406;-73
2022/01/09 10:28:05;;;;;;;10.65;7.03;;;3.20;99.90;;;;;;4973058;28;20035;-73
2022/01/09 10:30:38;;;;;;;11.57;6.90;;;3.20;99.90;;;;;;4971616;28;20027;-73
2022/01/09 10:33:08;;;;;;;9.80;6.40;;;3.20;99.90;;;;;;4969688;28;20056;-74
2022/01/09 10:35:36;;;;;;;11.68;7.05;;;3.20;99.90;;;;;;4972654;28;20519;-74
2022/01/09 10:38:11;;;;;;;10.25;6.70;;;3.20;99.90;;;;;;4973123;28;20172;-74
2022/01/09 10:40:38;;;;;;;9.88;6.30;;;3.30;99.90;;;;;;4969161;28;20058;-74
2022/01/09 10:43:20;;;;;;;9.70;7.40;;;3.30;99.90;;;;;;4973148;28;20669;-74
2022/01/09 10:45:52;;;;;;;10.73;6.95;;;3.30;99.90;;;;;;4972087;28;20027;-74
2022/01/09 10:48:23;;;;;;;11.30;7.25;;;3.30;99.90;;;;;;4970199;28;20041;-73
2022/01/09 10:50:50;;;;;;;10.43;7.03;;;3.40;99.90;;;;;;4970750;28;20548;-74
2022/01/09 10:53:22;;;;;;;9.00;6.47;;;3.40;99.90;;;;;;4971071;28;20106;-73
2022/01/09 10:56:32;;;;;;;10.63;6.63;;;3.30;99.90;;;;;;4973628;28;20148;-74
2022/01/09 10:58:58;;;;;;;9.38;6.80;;;3.30;99.90;;;;;;4949491;28;20086;-73
2022/01/09 11:01:34;;;;;;;12.52;6.57;;;3.40;99.90;;;;;;4973195;28;20054;-73
2022/01/09 11:04:04;;;;;;;8.90;6.63;;;3.40;99.90;;;;;;4972568;28;20563;-74
2022/01/09 11:06:31;;;;;;;10.48;5.88;;;3.40;99.90;;;;;;4971194;28;20073;-75
2022/01/09 11:08:58;;;;;;;11.98;6.70;;;3.40;99.90;;;;;;4975262;28;20134;-74
2022/01/09 11:11:37;;;;;;;9.32;5.88;;;3.40;99.90;;;;;;4975354;28;20029;-75
2022/01/09 11:14:05;;;;;;;10.07;5.97;;;3.40;99.90;;;;;;4972889;28;20039;-74
2022/01/09 11:16:33;;;;;;;9.93;6.53;;;3.40;99.90;;;;;;4972189;28;20101;-75
2022/01/09 11:19:02;;;;;;;8.50;5.75;;;3.30;99.90;;;;;;4972870;28;20494;-74
2022/01/09 11:21:28;;;;;;;9.60;6.07;;;3.40;99.90;;;;;;4974009;28;20073;-73
2022/01/09 11:24:18;;;;;;;9.50;6.43;;;3.30;99.90;;;;;;4972054;28;20039;-74
2022/01/09 11:26:52;;;;;;;9.82;6.28;;;3.40;99.90;;;;;;4975739;28;20033;-76
2022/01/09 11:29:40;;;;;;;9.98;6.68;;;3.40;99.90;;;;;;4971792;28;20030;-74
2022/01/09 11:32:35;;;;;;;11.40;6.97;;;3.40;99.90;;;;;;4972838;28;20031;-74
2022/01/09 11:35:14;;;;;;;11.45;7.15;;;3.40;99.90;;;;;;4972380;28;20393;-75
2022/01/09 11:37:48;;;;;;;10.32;5.97;;;3.50;99.90;;;;;;4972034;28;20055;-74
2022/01/09 11:40:27;;;;;;;13.43;8.00;;;3.50;99.90;;;;;;4970694;28;20037;-75
2022/01/09 11:43:08;;;;;;;10.45;7.18;;;3.50;99.90;;;;;;4973736;28;20054;-74
2022/01/09 11:46:00;;;;;;;11.02;7.13;;;3.60;99.90;;;;;;4972651;28;20027;-73
2022/01/09 11:49:06;;;;;;;10.77;7.82;;;3.60;99.90;;;;;;4971244;28;20023;-74
2022/01/09 11:51:34;;;;;;;11.43;7.45;;;3.60;99.90;;;;;;4915216;29;20032;-73
2022/01/09 11:54:15;;;;;;;11.77;6.68;;;3.60;99.90;;;;;;4929835;29;20115;-74
2022/01/09 11:56:52;;;;;;;9.27;6.15;;;3.70;99.90;;;;;;4924525;29;20028;-73
2022/01/09 11:59:19;;;;;;;10.85;6.97;;;3.70;99.90;;;;;;4928569;29;20046;-74
2022/01/09 12:01:46;;;;;;;15.77;8.48;;;3.70;99.90;;;;;;4927651;29;20027;-74
2022/01/09 12:04:30;;;;;;;18.70;8.52;;;3.70;99.90;;;;;;4927717;29;20036;-74
2022/01/09 12:06:57;;;;;;;14.25;7.97;;;3.80;99.90;;;;;;4928393;29;20039;-74
2022/01/09 12:09:36;;;;;;;12.27;7.25;;;3.80;99.90;;;;;;4928240;29;20047;-74
2022/01/09 12:12:10;;;;;;;13.45;7.45;;;3.90;99.90;;;;;;4929073;29;20078;-74
2022/01/09 12:14:42;;;;;;;13.20;7.88;;;3.90;99.90;;;;;;4927777;29;20047;-74
2022/01/09 12:17:23;;;;;;;15.10;7.68;;;3.90;99.90;;;;;;4928300;29;20127;-74
2022/01/09 12:20:12;;;;;;;12.80;7.05;;;4.00;99.90;;;;;;4926848;29;20036;-74
2022/01/09 12:22:42;;;;;;;11.48;7.20;;;4.10;99.90;;;;;;4953192;28;20047;-74
2022/01/09 12:25:10;;;;;;;15.37;7.20;;;4.10;99.90;;;;;;4966915;28;20037;-74
2022/01/09 12:27:35;;;;;;;12.30;6.88;;;4.10;99.90;;;;;;4969457;28;20059;-75
2022/01/09 12:30:03;;;;;;;13.05;6.60;;;4.10;99.90;;;;;;4972147;28;20555;-74
2022/01/09 12:32:43;;;;;;;13.38;7.38;;;4.20;99.90;;;;;;4953425;28;20023;-73
2022/01/09 12:35:19;;;;;;;14.88;7.80;;;4.20;99.90;;;;;;4971063;28;20445;-74
2022/01/09 12:37:47;;;;;;;11.98;7.53;;;4.20;99.90;;;;;;4970808;28;20101;-74
2022/01/09 12:40:17;;;;;;;15.10;7.47;;;4.20;99.90;;;;;;4974738;28;20449;-73
2022/01/09 12:42:50;;;;;;;10.52;6.28;;;4.30;99.90;;;;;;4974486;28;20524;-74
2022/01/09 12:45:25;;;;;;;11.25;6.18;;;4.30;99.90;;;;;;4974514;28;20125;-73
2022/01/09 12:47:52;;;;;;;12.30;5.85;;;4.30;99.90;;;;;;4976003;28;20106;-73
2022/01/09 12:50:26;;;;;;;11.93;6.10;;;4.40;99.90;;;;;;4974289;28;20410;-73
2022/01/09 12:53:10;;;;;;;12.05;5.07;;;4.40;99.90;;;;;;4971738;28;20566;-74
2022/01/09 12:55:36;;;;;;;12.70;5.63;;;4.40;99.90;;;;;;4973584;28;20098;-74
2022/01/09 12:58:03;;;;;;;11.57;5.80;;;4.40;99.90;;;;;;4975416;28;20038;-74